Terminal Aerodrome Forecast
Issued by NWS Twin Cities, MN

Home | Current Version | Previous Version | Graphics & Text | Print | Product List | Glossary On
Versions: 1 2 3 4 5 6 7 8 9 10 11 12 13 14 15
000
FTUS43 KMPX 191120
TAFSTC
TAF
KSTC 191120Z 1912/2012 00000KT 1/2SM FG BKN003
     FM191300 21003KT 4SM BR SCT005
     FM191400 21007KT P6SM SKC
     FM200000 18006KT P6SM SKC
     FM200900 18005KT P6SM SCT100 BKN250=

USA.gov is the U.S. government's official web portal to all federal, state and local government web resources and services.